IMK - Bhop Stats - Record Database

guitar man Records (65)

Run ID SteamID Name Map Style / Track Time Jumps Strafes Sync Points Date (YYYY-MM-DD)
82961 912555964 guitar man bhop_lego2 Normal / Main 21:32.450m 1450 1907 90.09% 77.88 2020-04-26 10:12:15
87185 912555964 guitar man bhop_green_shade Normal / Main 10:10.656m 575 786 94.85% 40.54 2020-05-08 15:40:22
90677 912555964 guitar man bhop_synthetic Normal / Bonus 24.195s 35 40 69.53% 2.36 2020-05-19 17:20:30
91078 912555964 guitar man bhop_null Normal / Bonus 5.922s 8 18 86.88% 16.08 2020-05-21 12:27:15
93481 912555964 guitar man bhop_4four Normal / Main 07:38.859m 433 747 85.67% 63.30 2020-05-30 17:54:14
95755 912555964 guitar man bhop_fyushion Normal / Main 02:11.445m 159 241 93.68% 42.10 2020-06-12 14:40:56
95756 912555964 guitar man bhop_trib_speedrun Normal / Main 28.602s 36 56 93.05% 39.40 2020-06-12 14:51:05
96203 912555964 guitar man bhop_frankerz Normal / Main 08:44.469m 682 979 95.10% 139.76 2020-06-15 10:27:29
97856 912555964 guitar man bhop_orbital Normal / Bonus 19.477s 27 47 97.43% 17.58 2020-06-24 10:13:53
98162 912555964 guitar man bhop_fur_fix Sideways / Bonus 10.453s 14 38 100.00% 17.87 2020-06-25 14:50:06
98166 912555964 guitar man bhop_sj Normal / Bonus 10.664s 14 35 94.75% 18.03 2020-06-25 15:15:57
98176 912555964 guitar man bhop_lumbridge_castle Normal / Main 50.773s 73 114 93.86% 56.14 2020-06-25 15:45:42
98154 912555964 guitar man bhop_fur_fix Normal / Bonus 10.195s 14 38 96.35% 17.71 2020-06-25 21:16:18
98953 912555964 guitar man bhop_eblanki Normal / Main 14.430s 20 39 97.49% 64.41 2020-06-29 11:53:43
98954 912555964 guitar man bhop_sonni_v2 Normal / Main 34.461s 45 81 91.91% 33.41 2020-06-29 11:55:45
99009 912555964 guitar man bhop_room10 Normal / Bonus 13.117s 12 35 77.39% 12.43 2020-06-29 15:12:06
99165 912555964 guitar man bhop_igloo Normal / Main 5.828s 8 28 94.83% 73.56 2020-06-30 14:42:10
99383 912555964 guitar man bhop_forest Normal / Main 24.859s 31 49 97.60% 46.87 2020-07-01 13:17:35
99384 912555964 guitar man bhop_atom Normal / Bonus 9.578s 13 35 96.75% 17.65 2020-07-01 13:19:02
99398 912555964 guitar man bhop_good Normal / Main 17.703s 22 34 92.64% 25.79 2020-07-01 14:02:10
99399 912555964 guitar man bhop_rabbit_csgo Normal / Main 46.570s 62 101 96.03% 37.21 2020-07-01 14:04:40
99426 912555964 guitar man bhop_blue_aux Normal / Bonus 11.820s 14 44 95.57% 4.93 2020-07-01 15:20:08
99434 912555964 guitar man bhop_bloc Normal / Main 02:50.578m 205 363 95.33% 64.65 2020-07-01 15:28:38
99961 912555964 guitar man bhop_neratop Normal / Main 42.609s 56 94 92.55% 30.83 2020-07-03 18:39:29
99963 912555964 guitar man bhop_aroma Normal / Main 38.945s 46 109 96.06% 65.06 2020-07-03 19:02:11
100314 912555964 guitar man bhop_greentex Normal / Main 27.570s 32 71 96.32% 59.01 2020-07-05 12:20:38
99168 912555964 guitar man bhop_lama Normal / Bonus 7.742s 11 49 90.27% 18.88 2020-07-05 12:34:08
100400 912555964 guitar man bhop_smudge_csgo Normal / Main 35.477s 46 135 91.47% 58.48 2020-07-05 19:21:02
100405 912555964 guitar man bhop_kaunisnimi_fix Normal / Main 27.742s 39 84 95.37% 61.72 2020-07-05 19:36:52
100408 912555964 guitar man bhop_tsture Normal / Main 21.539s 28 61 95.76% 67.42 2020-07-05 19:51:02
100322 912555964 guitar man bhop_lama Normal / Main 15.133s 21 52 95.08% 69.85 2020-07-05 20:06:16
100514 912555964 guitar man bhop_speedrun_suka49 Normal / Main 12.086s 14 40 94.57% 66.06 2020-07-06 14:35:26
100516 912555964 guitar man bhop_malabar9 Normal / Main 33.336s 38 91 95.22% 44.09 2020-07-06 14:53:53
100519 912555964 guitar man bhop_temporal Normal / Main 45.461s 59 121 93.48% 53.09 2020-07-06 15:04:20
100525 912555964 guitar man bhop_jx_csgo Normal / Main 01:26.992m 99 152 94.23% 15.84 2020-07-06 16:43:24
100531 912555964 guitar man bhop_4nairda_rg1 Normal / Main 23.859s 32 53 95.99% 41.06 2020-07-06 17:34:46
100535 912555964 guitar man bhop_bw Normal / Main 21.586s 28 64 97.20% 67.83 2020-07-06 18:25:01
100538 912555964 guitar man bhop_edge_re Normal / Main 01:01.617m 80 181 95.45% 141.06 2020-07-06 19:00:35
100539 912555964 guitar man bhop_kyu Normal / Main 39.023s 45 88 94.64% 40.26 2020-07-06 19:17:43
100541 912555964 guitar man bhop_functiontest_rg3_csgo Normal / Main 53.133s 69 115 93.89% 112.51 2020-07-06 19:28:04
100543 912555964 guitar man bhop_mustapaska Normal / Main 01:08.273m 93 146 97.10% 138.72 2020-07-06 19:51:11
100545 912555964 guitar man bhop_smallmap Normal / Bonus 10.047s 14 43 92.66% 18.31 2020-07-06 20:11:04
100547 912555964 guitar man bhop_smallmap Low Gravity / Bonus 10.250s 9 49 91.60% 8.99 2020-07-06 20:18:54
100888 912555964 guitar man bhop_greenhouse Normal / Main 19.266s 26 54 96.02% 66.71 2020-07-08 18:00:48
100890 912555964 guitar man bhop_hood Normal / Main 12.039s 17 32 91.60% 42.35 2020-07-08 18:09:50
100893 912555964 guitar man bhop_mykhop_final_fix Normal / Main 56.578s 75 132 96.31% 99.24 2020-07-08 18:36:13
100895 912555964 guitar man bhop_coma_x_csgo Normal / Main 16.391s 22 41 95.44% 67.28 2020-07-08 18:47:52
100899 912555964 guitar man bhop_atom Normal / Main 22.000s 30 66 93.94% 68.73 2020-07-08 21:02:39
101184 912555964 guitar man bhop_cpm Normal / Bonus 12.578s 17 29 97.66% 17.89 2020-07-10 07:24:41
101185 912555964 guitar man bhop_cpm Slow Motion / Bonus 9.383s 13 75 93.17% 9.45 2020-07-10 07:26:00
101186 912555964 guitar man bhop_cpm Low Gravity / Bonus 11.570s 8 47 94.42% 9.35 2020-07-10 07:27:32
101189 912555964 guitar man bhop_vjump Normal / Main 17.266s 23 47 95.68% 64.98 2020-07-10 07:55:29
101192 912555964 guitar man bhop_shampoo Normal / Bonus 5.211s 8 18 95.48% 17.73 2020-07-10 07:59:15
101193 912555964 guitar man bhop_shampoo Scroll / Bonus 5.789s 8 28 83.68% 18.85 2020-07-10 07:59:36
101199 912555964 guitar man bhop_anini Normal / Main 01:18.617m 100 168 93.36% 58.49 2020-07-10 08:42:22
101200 912555964 guitar man bhop_anini Normal / Bonus 12.016s 10 24 96.21% 13.53 2020-07-10 08:44:14
101215 912555964 guitar man bhop_keythebae Normal / Main 0.367s 0 0 100.00% 1.60 2020-07-10 09:41:39
101217 912555964 guitar man bhop_hades Normal / Main 04:09.867m 260 494 95.59% 45.71 2020-07-10 09:56:01
101218 912555964 guitar man bhop_hades Normal / Bonus 31.227s 34 57 96.72% 14.90 2020-07-10 09:57:13
101338 912555964 guitar man bhop_fade Normal / Bonus 13.391s 17 53 95.04% 18.64 2020-07-10 19:44:07
101340 912555964 guitar man bhop_fade Low Gravity / Bonus 14.422s 10 70 90.60% 9.50 2020-07-10 19:46:56
101343 912555964 guitar man bhop_fade Sideways / Bonus 14.703s 19 67 99.94% 19.00 2020-07-10 19:49:38
101344 912555964 guitar man bhop_strafeflow Normal / Main 25.906s 35 132 88.63% 142.85 2020-07-10 19:59:41
101347 912555964 guitar man bhop_sandtrap Normal / Main 46.242s 27 63 98.32% 123.51 2020-07-10 20:29:28
101350 912555964 guitar man bhop_nila Normal / Main 01:05.227m 72 152 95.55% 47.55 2020-07-10 21:16:28